Time;durP1;ratioP1;P1;durP2;ratioP2;P2;SDS_P1;SDS_P2;PMS_P1;PMS_P2;Temp;Humidity;BMP_temperature;BMP_pressure;BME280_temperature;BME280_humidity;BME280_pressure;Samples;Min_cycle;Max_cycle;Signal;HPM_P1;HPM_P2
2023/09/25 00:00:32;;;;;;;3.10;1.20;;;;;;;17.84;50.57;100518.41;4953705;28;20130;-75
2023/09/25 00:03:03;;;;;;;2.65;1.15;;;;;;;17.81;51.01;100515.13;4953460;28;20419;-75
2023/09/25 00:05:30;;;;;;;1.52;0.90;;;;;;;17.82;51.13;100508.81;4951389;29;20106;-78
2023/09/25 00:07:57;;;;;;;2.17;1.10;;;;;;;17.81;50.77;100515.13;4953525;28;20092;-77
2023/09/25 00:10:24;;;;;;;1.88;0.90;;;;;;;17.79;50.99;100507.25;4953292;28;20522;-75
2023/09/25 00:12:51;;;;;;;4.20;1.20;;;;;;;17.78;50.97;100508.22;4952955;28;20053;-78
2023/09/25 00:15:17;;;;;;;2.58;1.08;;;;;;;17.78;51.20;100507.38;4953198;28;20055;-76
2023/09/25 00:17:44;;;;;;;1.50;1.00;;;;;;;17.76;50.85;100503.97;4953313;28;20079;-76
2023/09/25 00:20:12;;;;;;;2.13;0.98;;;;;;;17.77;50.82;100513.66;4951674;29;20087;-76
2023/09/25 00:22:41;;;;;;;1.85;0.90;;;;;;;17.77;50.86;100518.97;4953136;28;20460;-76
2023/09/25 00:25:08;;;;;;;1.88;1.00;;;;;;;17.77;50.81;100517.19;4952823;28;20126;-76
2023/09/25 00:27:35;;;;;;;2.75;1.00;;;;;;;17.77;51.10;100511.00;4952349;29;20133;-75
2023/09/25 00:30:06;;;;;;;2.05;0.93;;;;;;;17.76;50.96;100519.97;4951978;29;20043;-76
2023/09/25 00:32:33;;;;;;;1.15;0.80;;;;;;;17.77;51.15;100513.66;4952908;28;20051;-78
2023/09/25 00:35:00;;;;;;;1.42;0.90;;;;;;;17.76;51.06;100517.28;4953607;28;20740;-77
2023/09/25 00:37:27;;;;;;;1.35;1.15;;;;;;;17.75;50.99;100519.09;4952551;28;20133;-77
2023/09/25 00:39:54;;;;;;;1.67;0.98;;;;;;;17.73;51.08;100515.72;4952815;28;20149;-75
2023/09/25 00:42:22;;;;;;;1.17;0.98;;;;;;;17.72;51.19;100519.34;4943893;28;20421;-77
2023/09/25 00:44:48;;;;;;;3.35;1.20;;;;;;;17.70;51.05;100502.63;4947606;29;20069;-75
2023/09/25 00:47:15;;;;;;;0.90;0.80;;;;;;;17.69;51.01;100506.25;4952878;28;20047;-76
2023/09/25 00:49:41;;;;;;;1.80;0.90;;;;;;;17.67;51.04;100511.69;4952592;28;20065;-78
2023/09/25 00:52:09;;;;;;;2.30;0.90;;;;;;;17.67;50.94;100505.50;4947348;29;20402;-76
2023/09/25 00:54:36;;;;;;;1.50;0.80;;;;;;;17.66;51.05;100509.16;4952943;28;20078;-80
2023/09/25 00:57:08;;;;;;;2.28;0.80;;;;;;;17.64;51.15;100506.59;4952631;28;20575;-80
2023/09/25 00:59:38;;;;;;;1.85;0.70;;;;;;;17.62;50.95;100508.53;4952778;28;20054;-76
2023/09/25 01:02:05;;;;;;;1.90;1.20;;;;;;;17.61;51.16;100514.84;4952865;29;20051;-77
2023/09/25 01:04:31;;;;;;;2.70;1.10;;;;;;;17.59;51.14;100514.06;4952179;29;20146;-78
2023/09/25 01:07:00;;;;;;;3.47;1.30;;;;;;;17.56;51.24;100520.47;4952892;28;20412;-78
2023/09/25 01:09:26;;;;;;;1.40;0.88;;;;;;;17.55;51.04;100517.94;4953099;28;20054;-78
2023/09/25 01:11:53;;;;;;;1.45;0.95;;;;;;;17.54;50.94;100518.91;4951639;29;20131;-75
2023/09/25 01:14:19;;;;;;;1.60;0.90;;;;;;;17.52;51.55;100516.34;4951185;28;20052;-76
2023/09/25 01:16:46;;;;;;;1.88;1.08;;;;;;;17.49;51.51;100513.91;4933754;29;20058;-74
2023/09/25 01:19:13;;;;;;;2.22;0.88;;;;;;;17.48;51.17;100511.34;4949688;29;20142;-75
2023/09/25 01:21:46;;;;;;;3.47;1.00;;;;;;;17.43;51.37;100520.53;4952280;28;20058;-75
2023/09/25 01:24:13;;;;;;;3.85;1.08;;;;;;;17.45;51.50;100515.97;4952333;29;20055;-81
2023/09/25 01:26:39;;;;;;;2.38;1.10;;;;;;;17.42;51.32;100507.38;4952487;28;20082;-76
2023/09/25 01:29:06;;;;;;;1.48;1.08;;;;;;;17.40;51.57;100506.63;4951206;29;20051;-76
2023/09/25 01:31:33;;;;;;;2.72;1.30;;;;;;;17.38;51.43;100509.38;4952215;28;20138;-76
2023/09/25 01:33:59;;;;;;;2.65;1.00;;;;;;;17.36;51.39;100506.00;4952361;28;20082;-76
2023/09/25 01:36:26;;;;;;;2.13;1.10;;;;;;;17.35;51.41;100503.44;4947084;28;20047;-80
2023/09/25 01:38:52;;;;;;;2.00;1.10;;;;;;;17.33;51.50;100506.22;4952681;28;20051;-76
2023/09/25 01:41:19;;;;;;;2.30;1.00;;;;;;;17.30;51.68;100507.28;4950759;29;20053;-77
2023/09/25 01:43:45;;;;;;;1.00;0.85;;;;;;;17.29;51.72;100505.59;4952176;29;20054;-76
2023/09/25 01:46:11;;;;;;;1.95;1.08;;;;;;;17.29;51.62;100510.06;4937368;28;20386;-79
2023/09/25 01:48:38;;;;;;;1.60;0.90;;;;;;;17.26;51.50;100504.97;4952342;28;20138;-77
2023/09/25 01:51:10;;;;;;;1.70;0.90;;;;;;;17.22;51.77;100500.81;4952502;29;20055;-80
2023/09/25 01:53:36;;;;;;;1.73;1.10;;;;;;;17.21;51.61;100497.34;4953994;28;20530;-75
2023/09/25 01:56:13;;;;;;;2.90;1.02;;;;;;;17.15;51.65;100503.09;4955863;28;20515;-78
2023/09/25 01:58:44;;;;;;;2.80;1.13;;;;;;;17.15;51.56;100503.94;4947918;28;20051;-78
2023/09/25 02:01:10;;;;;;;1.83;0.82;;;;;;;17.13;52.01;100505.88;4955984;28;20547;-76
2023/09/25 02:03:37;;;;;;;3.22;1.40;;;;;;;17.10;51.67;100503.44;4947866;29;20050;-76
2023/09/25 02:06:04;;;;;;;1.85;1.15;;;;;;;17.06;51.83;100505.47;4956014;28;20058;-75
2023/09/25 02:08:31;;;;;;;2.38;1.08;;;;;;;17.05;51.94;100503.75;4955776;28;20047;-76
2023/09/25 02:10:58;;;;;;;2.10;1.05;;;;;;;17.04;52.00;100506.50;4955639;28;20155;-80
2023/09/25 02:13:25;;;;;;;3.33;1.30;;;;;;;17.02;52.00;100509.28;4955134;28;20047;-80
2023/09/25 02:15:52;;;;;;;1.70;1.05;;;;;;;17.01;51.82;100515.53;4955820;29;20135;-76
2023/09/25 02:18:18;;;;;;;1.55;1.05;;;;;;;17.00;52.29;100508.53;4955291;28;20078;-79
2023/09/25 02:20:46;;;;;;;1.77;1.30;;;;;;;16.97;52.13;100522.03;4954898;28;20055;-77
2023/09/25 02:23:12;;;;;;;2.85;1.10;;;;;;;16.97;52.11;100518.56;4955187;28;20851;-76
2023/09/25 02:25:39;;;;;;;1.00;0.90;;;;;;;16.94;52.24;100512.47;4955031;29;20404;-76
2023/09/25 02:28:06;;;;;;;3.13;1.30;;;;;;;16.94;52.35;100516.97;4955242;28;20045;-75
2023/09/25 02:30:32;;;;;;;1.17;1.00;;;;;;;16.92;52.42;100510.91;4953788;29;20051;-75
2023/09/25 02:33:02;;;;;;;1.95;1.15;;;;;;;16.91;52.80;100507.41;4955369;28;20134;-80
2023/09/25 02:35:29;;;;;;;2.45;1.00;;;;;;;16.91;52.67;100509.19;4954788;29;20654;-83
2023/09/25 02:37:56;;;;;;;2.15;1.27;;;;;;;16.90;52.79;100507.50;4955151;28;20055;-82
2023/09/25 02:40:22;;;;;;;2.17;1.17;;;;;;;16.89;52.80;100503.13;4954704;29;20496;-75
2023/09/25 02:42:48;;;;;;;2.58;1.13;;;;;;;16.88;52.74;100506.75;4954490;29;20055;-77
2023/09/25 02:45:16;;;;;;;3.17;1.25;;;;;;;16.87;52.69;100502.41;4954871;28;20075;-75
2023/09/25 02:47:43;;;;;;;4.32;1.08;;;;;;;16.87;52.47;100505.06;4949438;29;20055;-77
2023/09/25 02:50:10;;;;;;;1.30;1.10;;;;;;;16.85;52.64;100502.50;4954419;28;20408;-80
2023/09/25 02:52:37;;;;;;;1.77;1.05;;;;;;;16.83;52.94;100503.59;4954359;28;20492;-76
2023/09/25 02:55:04;;;;;;;1.73;1.10;;;;;;;16.80;52.96;100497.53;4954477;28;20047;-77
2023/09/25 02:57:30;;;;;;;1.27;1.17;;;;;;;16.80;53.09;100494.03;4954705;28;20106;-76
2023/09/25 02:59:57;;;;;;;1.98;1.10;;;;;;;16.78;52.95;100502.09;4954709;28;20130;-77
2023/09/25 03:02:25;;;;;;;2.58;1.20;;;;;;;16.78;52.96;100506.56;4954128;29;20143;-76
2023/09/25 03:04:53;;;;;;;1.67;0.82;;;;;;;16.76;52.85;100506.69;4953566;28;20464;-76
2023/09/25 03:07:20;;;;;;;3.72;0.90;;;;;;;16.75;53.11;100501.47;4946516;28;20055;-76
2023/09/25 03:09:46;;;;;;;1.85;1.00;;;;;;;16.73;52.92;100504.25;4945657;29;20496;-78
2023/09/25 03:12:13;;;;;;;2.10;0.98;;;;;;;16.71;53.09;100503.50;4954628;28;20051;-76
2023/09/25 03:14:39;;;;;;;1.80;1.02;;;;;;;16.68;53.53;100503.72;4952881;29;20814;-75
2023/09/25 03:17:06;;;;;;;1.50;1.08;;;;;;;16.67;52.92;100509.97;4953950;29;20047;-80
2023/09/25 03:19:35;;;;;;;1.17;0.95;;;;;;;16.64;53.40;100508.38;4952477;28;20057;-80
2023/09/25 03:22:02;;;;;;;1.27;0.90;;;;;;;16.62;53.17;100515.63;4950725;29;20511;-74
2023/09/25 03:24:28;;;;;;;3.47;1.20;;;;;;;16.61;53.40;100513.09;4952153;29;20063;-79
2023/09/25 03:26:55;;;;;;;2.35;1.10;;;;;;;16.61;53.35;100515.75;4954513;29;20051;-79
2023/09/25 03:29:21;;;;;;;1.80;1.05;;;;;;;16.61;53.39;100518.41;4954262;28;20053;-76
2023/09/25 03:31:48;;;;;;;2.63;1.42;;;;;;;16.60;53.39;100522.03;4953812;28;20061;-75
2023/09/25 03:34:14;;;;;;;2.75;1.23;;;;;;;16.59;53.38;100520.34;4953532;29;20616;-77
2023/09/25 03:36:41;;;;;;;2.33;1.20;;;;;;;16.57;53.47;100519.56;4953871;28;20055;-79
2023/09/25 03:39:08;;;;;;;1.73;1.10;;;;;;;16.56;53.58;100521.38;4954019;28;20051;-76
2023/09/25 03:41:35;;;;;;;4.70;1.40;;;;;;;16.54;53.45;100525.94;4953623;28;20122;-77
2023/09/25 03:44:01;;;;;;;2.25;1.20;;;;;;;16.52;53.53;100528.72;4954108;29;20057;-78
2023/09/25 03:46:28;;;;;;;1.90;1.20;;;;;;;16.50;53.53;100530.66;4953797;29;20054;-75
2023/09/25 03:48:54;;;;;;;3.40;1.20;;;;;;;16.47;53.54;100536.16;4953884;28;20047;-77
2023/09/25 03:51:21;;;;;;;1.30;1.10;;;;;;;16.44;53.60;100533.72;4953733;28;20043;-76
2023/09/25 03:53:47;;;;;;;1.25;1.15;;;;;;;16.42;53.48;100535.63;4950153;29;20126;-76
2023/09/25 03:56:14;;;;;;;1.08;0.98;;;;;;;16.40;53.68;100541.06;4950842;29;20086;-80
2023/09/25 03:58:40;;;;;;;1.63;0.90;;;;;;;16.37;54.18;100535.94;4943952;29;20051;-80
2023/09/25 04:01:07;;;;;;;1.30;1.17;;;;;;;16.36;53.87;100538.69;4947499;29;20059;-76
2023/09/25 04:03:33;;;;;;;1.88;1.10;;;;;;;16.34;53.90;100537.97;4953069;28;20051;-76
2023/09/25 04:06:00;;;;;;;2.75;1.40;;;;;;;16.33;53.89;100545.09;4952934;28;20047;-77
2023/09/25 04:08:26;;;;;;;2.65;1.00;;;;;;;16.31;54.00;100548.81;4953147;28;20053;-80
2023/09/25 04:10:53;;;;;;;2.13;1.00;;;;;;;16.28;54.19;100541.91;4953643;28;20051;-80
2023/09/25 04:13:22;;;;;;;2.42;1.27;;;;;;;16.27;54.08;100537.53;4953455;28;20046;-80
2023/09/25 04:15:50;;;;;;;2.05;1.20;;;;;;;16.26;54.07;100544.66;4951689;28;20062;-76
2023/09/25 04:18:18;;;;;;;1.33;0.98;;;;;;;16.26;53.89;100536.69;4949125;29;20074;-81
2023/09/25 04:20:45;;;;;;;2.10;0.95;;;;;;;16.24;54.44;100537.75;4952955;28;20142;-86
2023/09/25 04:23:13;;;;;;;1.30;1.20;;;;;;;16.24;54.44;100530.63;4952856;28;20518;-79
2023/09/25 04:25:40;;;;;;;1.80;1.00;;;;;;;16.23;54.65;100528.91;4953095;28;20788;-76
2023/09/25 04:28:06;;;;;;;2.80;1.20;;;;;;;16.22;54.40;100521.09;4952585;28;20061;-77
2023/09/25 04:30:33;;;;;;;1.67;1.05;;;;;;;16.20;54.15;100523.84;4953050;28;20536;-76
2023/09/25 04:33:00;;;;;;;1.45;1.23;;;;;;;16.19;54.15;100530.13;4952727;28;20489;-76
2023/09/25 04:35:28;;;;;;;1.70;1.08;;;;;;;16.15;54.39;100523.31;4951994;29;20050;-76
2023/09/25 04:37:54;;;;;;;2.65;1.35;;;;;;;16.13;54.64;100527.84;4952738;28;20062;-78
2023/09/25 04:40:25;;;;;;;1.65;1.08;;;;;;;16.11;54.71;100519.16;4953107;29;20055;-75
2023/09/25 04:42:53;;;;;;;1.67;1.02;;;;;;;16.09;54.83;100521.06;4946938;29;20090;-77
2023/09/25 04:45:19;;;;;;;1.23;0.93;;;;;;;16.07;54.78;100520.31;4952539;28;20055;-81
2023/09/25 04:47:53;;;;;;;1.52;1.10;;;;;;;16.05;54.67;100520.41;4952891;28;20488;-76
2023/09/25 04:50:21;;;;;;;1.10;1.00;;;;;;;16.04;54.72;100526.69;4952096;29;20126;-76
2023/09/25 04:52:48;;;;;;;2.88;1.15;;;;;;;16.03;54.71;100524.97;4952093;29;20051;-82
2023/09/25 04:55:15;;;;;;;2.97;1.30;;;;;;;16.01;54.81;100517.09;4952863;28;20129;-75
2023/09/25 04:57:46;;;;;;;1.38;1.25;;;;;;;16.00;55.05;100522.53;4952795;28;20126;-77
2023/09/25 05:02:44;;;;;;;3.15;1.08;;;;;;;15.99;54.98;100518.16;4951361;29;20047;-78
2023/09/25 05:05:12;;;;;;;3.97;0.93;;;;;;;15.98;54.78;100520.00;4951927;29;20058;-76
2023/09/25 05:07:41;;;;;;;1.65;0.77;;;;;;;15.97;54.88;100520.09;4952918;28;20071;-76
2023/09/25 05:10:12;;;;;;;2.22;0.90;;;;;;;15.93;54.85;100516.75;4952847;28;20130;-77
2023/09/25 05:12:39;;;;;;;2.72;1.13;;;;;;;15.94;54.79;100514.94;4951004;29;20066;-76
2023/09/25 05:15:07;;;;;;;2.60;0.90;;;;;;;15.93;54.97;100510.59;4952327;29;20043;-78
2023/09/25 05:17:37;;;;;;;2.10;1.10;;;;;;;15.92;55.25;100508.91;4952416;28;20087;-76
2023/09/25 05:20:15;;;;;;;2.00;1.30;;;;;;;15.89;55.19;100520.59;4952304;28;20118;-77
2023/09/25 05:22:53;;;;;;;3.22;0.90;;;;;;;15.90;55.09;100512.47;4952455;28;20061;-76
2023/09/25 05:25:21;;;;;;;1.10;0.93;;;;;;;15.90;55.06;100517.78;4951041;28;20090;-77
2023/09/25 05:27:50;;;;;;;3.17;1.17;;;;;;;15.89;55.29;100518.75;4951237;28;20062;-77
2023/09/25 05:30:17;;;;;;;1.48;0.98;;;;;;;15.91;55.18;100523.97;4938319;29;20139;-78
2023/09/25 05:32:49;;;;;;;1.98;1.25;;;;;;;15.88;55.15;100524.16;4955339;28;20051;-80
2023/09/25 05:35:17;;;;;;;1.40;1.10;;;;;;;15.90;54.90;100520.44;4955225;29;20062;-77
2023/09/25 05:37:45;;;;;;;2.25;0.90;;;;;;;15.90;55.10;100509.00;4954206;28;20047;-75
2023/09/25 05:40:13;;;;;;;1.50;1.02;;;;;;;15.90;55.24;100506.34;4937164;29;20051;-76
2023/09/25 05:42:44;;;;;;;2.72;1.05;;;;;;;15.90;55.49;100522.28;4953740;29;20051;-75
2023/09/25 05:45:13;;;;;;;1.42;0.85;;;;;;;15.90;55.38;100514.31;4948157;28;20051;-76
2023/09/25 05:47:39;;;;;;;4.65;1.08;;;;;;;15.91;55.37;100510.69;4955155;29;20053;-76
2023/09/25 05:50:07;;;;;;;2.65;1.00;;;;;;;15.91;55.48;100510.69;4946873;29;20047;-77
2023/09/25 05:52:38;;;;;;;3.13;1.08;;;;;;;15.92;55.84;100520.34;4954743;29;20051;-79
2023/09/25 05:55:10;;;;;;;3.28;0.90;;;;;;;15.95;55.72;100521.97;4956079;28;20260;-76
2023/09/25 05:57:37;;;;;;;1.47;1.07;;;;;;;15.97;55.45;100526.25;4955841;28;20051;-76
2023/09/25 06:00:15;;;;;;;2.83;1.13;;;;;;;15.97;55.73;100523.59;4956051;28;20059;-78
2023/09/25 06:02:42;;;;;;;1.85;1.23;;;;;;;16.02;55.66;100523.28;4953988;29;20074;-77
2023/09/25 06:05:13;;;;;;;1.70;0.80;;;;;;;16.03;55.45;100527.63;4955688;28;20043;-77
2023/09/25 06:07:40;;;;;;;3.70;1.63;;;;;;;16.07;55.51;100520.31;4955316;28;20062;-76
2023/09/25 06:10:09;;;;;;;1.20;0.85;;;;;;;16.11;55.47;100525.31;4955189;29;20110;-76
2023/09/25 06:12:39;;;;;;;2.05;1.00;;;;;;;16.14;55.47;100514.47;4954976;28;20054;-77
2023/09/25 06:15:09;;;;;;;2.60;0.90;;;;;;;16.18;55.53;100520.41;4948206;29;20133;-75
2023/09/25 06:17:37;;;;;;;1.17;0.88;;;;;;;16.24;55.51;100513.84;4946570;29;20468;-81
2023/09/25 06:20:13;;;;;;;1.05;0.95;;;;;;;16.28;55.59;100516.19;4940182;29;20051;-77
2023/09/25 06:22:39;;;;;;;2.05;1.10;;;;;;;16.34;55.80;100511.41;4954588;28;20047;-77
2023/09/25 06:25:11;;;;;;;1.38;0.77;;;;;;;16.40;55.52;100526.91;4955025;28;20551;-78
2023/09/25 06:27:37;;;;;;;1.77;0.90;;;;;;;16.46;55.48;100515.88;4955132;28;20047;-78
2023/09/25 06:30:04;;;;;;;2.38;0.93;;;;;;;16.52;55.69;100518.09;4955002;28;20130;-76
2023/09/25 06:32:31;;;;;;;1.15;1.00;;;;;;;16.59;55.72;100517.66;4954699;28;20122;-77
2023/09/25 06:34:58;;;;;;;3.05;1.15;;;;;;;16.64;55.54;100526.16;4954691;28;20504;-80
2023/09/25 06:37:24;;;;;;;3.20;1.08;;;;;;;16.68;55.38;100525.81;4955048;28;20568;-80
2023/09/25 06:39:51;;;;;;;2.17;1.10;;;;;;;16.75;55.51;100520.09;4953656;28;20047;-78
2023/09/25 06:42:17;;;;;;;1.50;1.02;;;;;;;16.82;55.36;100528.47;4954560;28;20128;-83
2023/09/25 06:44:44;;;;;;;1.42;0.95;;;;;;;16.88;55.17;100528.03;4954251;28;20048;-77
2023/09/25 06:51:01;;;;;;;1.83;1.20;;;;;;;16.99;55.03;100533.44;4951863;29;20086;-76
2023/09/25 06:53:27;;;;;;;2.53;0.80;;;;;;;17.02;55.17;100532.38;4935578;29;20054;-77
2023/09/25 06:55:55;;;;;;;1.63;0.90;;;;;;;17.06;54.77;100540.06;4935954;29;20056;-76
2023/09/25 06:58:21;;;;;;;2.35;1.00;;;;;;;17.10;54.92;100538.00;4941233;29;20402;-78
2023/09/25 07:00:50;;;;;;;1.38;0.88;;;;;;;17.14;54.89;100543.97;4945427;28;20576;-78
2023/09/25 07:03:23;;;;;;;3.10;1.10;;;;;;;17.19;54.98;100537.34;4941575;29;20046;-77
2023/09/25 07:05:50;;;;;;;3.65;1.40;;;;;;;17.23;55.09;100542.44;4953519;29;20134;-79
2023/09/25 07:08:18;;;;;;;1.48;1.00;;;;;;;17.27;54.84;100547.41;4954688;28;20043;-77
2023/09/25 07:10:51;;;;;;;1.02;0.90;;;;;;;17.31;54.91;100545.41;4954401;28;20051;-76
2023/09/25 07:13:20;;;;;;;1.42;0.80;;;;;;;17.36;54.77;100545.06;4946565;28;20066;-80
2023/09/25 07:15:47;;;;;;;2.55;1.05;;;;;;;17.40;54.62;100541.22;4953903;28;20062;-79
2023/09/25 07:18:14;;;;;;;1.05;0.75;;;;;;;17.44;54.36;100538.22;4954213;28;20050;-77
2023/09/25 07:20:41;;;;;;;3.97;1.20;;;;;;;17.50;54.92;100549.38;4953090;29;20165;-83
2023/09/25 07:23:07;;;;;;;3.83;1.30;;;;;;;17.54;54.60;100557.00;4943074;29;20118;-79
2023/09/25 07:25:34;;;;;;;3.15;1.15;;;;;;;17.58;54.43;100550.50;4941899;29;20047;-78
2023/09/25 07:28:01;;;;;;;2.42;1.25;;;;;;;17.62;54.57;100543.16;4954294;28;20126;-76
2023/09/25 07:30:27;;;;;;;1.30;1.20;;;;;;;17.68;54.50;100547.16;4954277;28;20109;-79
2023/09/25 07:32:54;;;;;;;1.80;1.00;;;;;;;17.72;54.52;100548.63;4953944;28;20074;-78
2023/09/25 07:35:21;;;;;;;2.55;1.20;;;;;;;17.78;54.41;100547.31;4953975;28;20401;-76
2023/09/25 07:37:47;;;;;;;2.47;1.10;;;;;;;17.83;54.35;100555.81;4938479;28;20071;-80
2023/09/25 07:40:15;;;;;;;2.42;1.17;;;;;;;17.88;54.14;100560.78;4953951;28;20058;-78
2023/09/25 07:42:42;;;;;;;2.28;1.45;;;;;;;17.92;54.28;100556.94;4953391;28;20102;-78
2023/09/25 07:45:12;;;;;;;1.25;0.95;;;;;;;17.97;54.14;100555.63;4946031;29;20114;-77
2023/09/25 07:47:40;;;;;;;2.35;1.02;;;;;;;18.01;54.20;100553.56;4953860;28;20058;-78
2023/09/25 07:50:11;;;;;;;5.30;1.35;;;;;;;18.06;53.75;100556.72;4953593;28;20105;-79
2023/09/25 07:52:38;;;;;;;1.30;0.93;;;;;;;18.13;53.89;100559.78;4953608;28;20051;-75
2023/09/25 07:55:11;;;;;;;2.10;1.00;;;;;;;18.18;53.73;100560.31;4953366;28;20055;-80
2023/09/25 07:57:43;;;;;;;3.72;1.40;;;;;;;18.24;53.76;100558.97;4952351;29;20098;-76
2023/09/25 08:00:22;;;;;;;1.35;1.25;;;;;;;18.30;53.91;100561.19;4953495;29;20098;-80
2023/09/25 08:02:52;;;;;;;4.32;1.10;;;;;;;18.36;53.50;100560.69;4953633;28;20054;-76
2023/09/25 08:05:19;;;;;;;2.50;1.30;;;;;;;18.42;53.57;100566.50;4952197;29;20044;-76
2023/09/25 08:07:47;;;;;;;4.97;1.20;;;;;;;18.47;53.10;100562.53;4953367;28;20059;-80
2023/09/25 08:10:14;;;;;;;2.15;1.10;;;;;;;18.52;53.15;100561.31;4941932;28;20044;-78
2023/09/25 08:12:41;;;;;;;1.63;1.05;;;;;;;18.55;53.17;100561.97;4934444;29;20063;-77
2023/09/25 08:15:08;;;;;;;1.85;1.25;;;;;;;18.59;52.85;100574.09;4932874;29;20107;-80
2023/09/25 08:17:35;;;;;;;2.58;1.33;;;;;;;18.62;52.67;100573.81;4934219;29;20052;-76
2023/09/25 08:20:13;;;;;;;2.42;1.50;;;;;;;18.66;52.49;100568.25;4933928;29;20490;-78
2023/09/25 08:22:41;;;;;;;2.75;1.40;;;;;;;18.71;52.64;100571.41;4934258;29;20156;-76
2023/09/25 08:25:11;;;;;;;2.25;1.30;;;;;;;18.77;52.84;100570.06;4944458;29;20059;-79
2023/09/25 08:27:38;;;;;;;2.63;1.20;;;;;;;18.80;52.45;100568.00;4953202;28;20051;-78
2023/09/25 08:30:07;;;;;;;3.28;1.23;;;;;;;18.85;52.65;100571.19;4951761;29;20086;-77
2023/09/25 08:32:33;;;;;;;1.90;1.25;;;;;;;18.88;52.49;100560.25;4951310;29;20051;-77
2023/09/25 08:35:01;;;;;;;5.45;1.00;;;;;;;18.93;52.73;100572.38;4953069;28;20062;-76
2023/09/25 08:37:31;;;;;;;1.88;1.10;;;;;;;18.97;52.73;100572.03;4952983;28;20058;-81
2023/09/25 08:39:58;;;;;;;4.50;1.58;;;;;;;19.01;52.78;100562.81;4952590;28;20047;-77
2023/09/25 08:42:26;;;;;;;1.98;1.20;;;;;;;19.08;52.60;100563.19;4952907;28;20043;-78
2023/09/25 08:44:59;;;;;;;2.63;1.10;;;;;;;19.13;52.62;100561.00;4952497;28;20055;-76
2023/09/25 08:47:27;;;;;;;2.42;1.33;;;;;;;19.21;52.57;100559.53;4952910;28;20047;-75
2023/09/25 08:49:55;;;;;;;1.88;1.30;;;;;;;19.29;52.73;100561.56;4936744;28;20055;-81
2023/09/25 08:52:23;;;;;;;1.45;1.10;;;;;;;19.34;52.01;100560.22;4932660;29;20047;-79
2023/09/25 08:54:51;;;;;;;3.53;1.45;;;;;;;19.40;51.68;100559.72;4933680;29;20048;-83
2023/09/25 08:57:18;;;;;;;2.35;1.10;;;;;;;19.47;51.52;100549.38;4945284;29;20067;-78
2023/09/25 08:59:47;;;;;;;2.58;1.23;;;;;;;19.55;51.45;100558.59;4952638;28;20087;-77
2023/09/25 09:02:14;;;;;;;5.05;1.50;;;;;;;19.62;51.31;100554.44;4952541;28;20050;-78
2023/09/25 09:04:41;;;;;;;1.58;1.10;;;;;;;19.67;51.55;100553.06;4956636;28;20047;-79
2023/09/25 09:07:09;;;;;;;5.07;1.50;;;;;;;19.72;50.98;100555.38;4956621;28;20047;-77
2023/09/25 09:09:37;;;;;;;3.30;1.25;;;;;;;19.78;51.31;100554.84;4956633;28;20048;-78
2023/09/25 09:12:04;;;;;;;1.70;1.20;;;;;;;19.82;50.96;100554.59;4954872;28;20047;-78
2023/09/25 09:14:36;;;;;;;3.45;1.23;;;;;;;19.86;50.32;100554.22;4950526;29;20101;-79
2023/09/25 09:17:07;;;;;;;2.93;1.60;;;;;;;19.91;51.03;100546.66;4939993;28;20048;-80
2023/09/25 09:19:50;;;;;;;1.80;1.20;;;;;;;19.97;50.86;100561.34;4938108;29;20052;-76
2023/09/25 09:22:18;;;;;;;2.45;1.45;;;;;;;20.02;51.12;100545.78;4956381;29;20463;-75
2023/09/25 09:24:47;;;;;;;2.38;1.30;;;;;;;20.07;50.68;100548.06;4956261;28;20057;-80
2023/09/25 09:27:14;;;;;;;4.13;1.60;;;;;;;20.09;50.70;100550.59;4955756;28;20111;-77
2023/09/25 09:29:42;;;;;;;1.45;1.10;;;;;;;20.13;50.62;100550.22;4956055;28;20504;-79
2023/09/25 09:32:10;;;;;;;2.33;1.42;;;;;;;20.16;51.18;100555.31;4955770;28;20047;-78
2023/09/25 09:34:41;;;;;;;1.80;1.50;;;;;;;20.21;50.96;100552.22;4956009;28;20073;-79
2023/09/25 09:37:08;;;;;;;2.97;1.50;;;;;;;20.27;50.54;100553.53;4955503;28;20047;-77
2023/09/25 09:39:36;;;;;;;1.75;1.40;;;;;;;20.31;50.59;100545.09;4955727;29;20043;-83
2023/09/25 09:42:08;;;;;;;2.83;1.50;;;;;;;20.36;50.29;100542.06;4955640;28;20077;-77
2023/09/25 09:44:35;;;;;;;2.67;1.50;;;;;;;20.42;50.83;100529.97;4955840;28;20479;-76
2023/09/25 09:47:04;;;;;;;2.22;1.45;;;;;;;20.49;50.34;100538.31;4955741;28;20062;-78
2023/09/25 09:49:35;;;;;;;3.83;1.30;;;;;;;20.55;49.83;100541.31;4956035;28;20044;-77
2023/09/25 09:52:02;;;;;;;1.88;1.35;;;;;;;20.66;50.25;100537.69;4955775;28;20050;-80
2023/09/25 09:54:36;;;;;;;3.15;1.40;;;;;;;20.73;49.44;100543.34;4955661;28;20049;-77
2023/09/25 09:57:04;;;;;;;2.78;1.60;;;;;;;20.85;49.79;100533.38;4948248;28;20047;-77
2023/09/25 09:59:31;;;;;;;3.25;1.30;;;;;;;20.93;49.70;100530.09;4943097;28;20453;-77
2023/09/25 10:01:59;;;;;;;2.95;1.75;;;;;;;21.02;49.64;100528.41;4936811;29;20556;-76
2023/09/25 10:04:26;;;;;;;1.92;1.20;;;;;;;21.08;49.34;100530.53;4951509;28;20044;-76
2023/09/25 10:06:59;;;;;;;1.67;1.20;;;;;;;21.13;48.73;100539.00;4952076;29;20047;-77
2023/09/25 10:09:26;;;;;;;3.08;1.40;;;;;;;21.20;49.37;100529.41;4944617;29;20051;-76
2023/09/25 10:11:56;;;;;;;2.42;1.17;;;;;;;21.29;49.71;100532.25;4935402;29;20386;-78
2023/09/25 10:14:25;;;;;;;2.30;1.48;;;;;;;21.35;48.94;100515.66;4947351;28;20163;-82
2023/09/25 10:16:51;;;;;;;1.50;1.35;;;;;;;21.44;49.36;100512.13;4955501;28;20119;-78
2023/09/25 10:19:22;;;;;;;1.65;1.27;;;;;;;21.54;49.35;100506.78;4955574;28;20050;-77
2023/09/25 10:22:15;;;;;;;2.40;1.20;;;;;;;21.61;49.91;100512.41;4955550;28;20052;-79
2023/09/25 10:24:45;;;;;;;5.75;1.30;;;;;;;21.79;49.40;100512.56;4948642;28;20431;-77
2023/09/25 10:27:15;;;;;;;3.38;1.27;;;;;;;21.92;48.96;100498.03;4954209;29;20051;-76
2023/09/25 10:30:03;;;;;;;2.90;1.60;;;;;;;22.05;48.98;100495.88;5024998;23;20468;-76
2023/09/25 10:32:30;;;;;;;4.45;1.63;;;;;;;22.31;49.72;100497.09;4949951;29;20048;-77
2023/09/25 10:34:57;;;;;;;1.90;1.20;;;;;;;22.47;48.55;100494.59;4935747;29;20082;-76
2023/09/25 10:37:24;;;;;;;4.13;1.40;;;;;;;22.65;48.82;100489.34;4935868;29;20044;-76
2023/09/25 10:39:58;;;;;;;3.90;1.13;;;;;;;22.84;48.09;100489.41;4934601;29;20523;-77
2023/09/25 10:42:25;;;;;;;2.20;1.40;;;;;;;23.04;48.00;100488.28;4934621;29;20052;-77
2023/09/25 10:44:51;;;;;;;3.55;1.23;;;;;;;23.23;47.30;100483.78;4927757;29;20063;-78
2023/09/25 10:47:18;;;;;;;1.58;1.17;;;;;;;23.37;47.19;100473.50;4935733;29;20044;-76
2023/09/25 10:49:45;;;;;;;2.30;1.10;;;;;;;23.49;46.40;100472.28;4930200;29;20119;-76
2023/09/25 10:52:11;;;;;;;1.25;0.98;;;;;;;23.61;46.26;100472.03;4932645;29;20055;-77
2023/09/25 10:54:38;;;;;;;2.78;1.63;;;;;;;23.71;46.38;100485.38;4935524;29;20061;-78
2023/09/25 10:57:04;;;;;;;4.28;1.40;;;;;;;23.84;46.64;100480.44;4935395;29;20071;-76
2023/09/25 10:59:31;;;;;;;2.67;1.42;;;;;;;23.98;47.06;100476.34;4935560;29;20079;-78
2023/09/25 11:01:58;;;;;;;5.47;1.38;;;;;;;24.16;47.02;100470.94;4935581;29;20134;-77
2023/09/25 11:04:25;;;;;;;1.95;1.20;;;;;;;24.39;46.73;100467.69;4934865;29;20047;-76
2023/09/25 11:06:52;;;;;;;1.98;1.45;;;;;;;24.68;46.58;100473.69;4935334;29;20059;-77
2023/09/25 11:09:18;;;;;;;1.73;1.02;;;;;;;24.97;45.92;100467.91;4935192;29;20051;-77
2023/09/25 11:11:46;;;;;;;1.85;1.17;;;;;;;25.32;45.54;100473.19;4935294;29;20056;-76
2023/09/25 11:14:13;;;;;;;1.88;1.20;;;;;;;25.70;45.31;100469.16;4934866;29;20119;-76
2023/09/25 11:16:40;;;;;;;2.38;1.58;;;;;;;26.12;45.42;100473.47;4935111;29;20104;-76
2023/09/25 11:19:10;;;;;;;3.42;1.30;;;;;;;26.58;44.33;100477.41;4935035;29;20051;-75
2023/09/25 11:21:38;;;;;;;1.65;1.17;;;;;;;27.09;43.44;100484.22;4935023;29;20485;-75
2023/09/25 11:24:09;;;;;;;1.83;1.17;;;;;;;27.55;42.92;100482.56;4934737;29;20055;-76
2023/09/25 11:26:41;;;;;;;1.85;0.93;;;;;;;28.01;41.36;100478.09;4934493;29;20123;-77
2023/09/25 11:29:09;;;;;;;4.00;1.30;;;;;;;28.44;41.83;100474.78;4934859;29;20055;-75
2023/09/25 11:31:39;;;;;;;2.13;1.20;;;;;;;28.80;41.06;100476.66;4935167;29;20106;-76
2023/09/25 11:34:25;;;;;;;3.53;1.15;;;;;;;29.18;39.37;100474.78;4933952;29;20055;-77